sensor_id;sensor_type;location;lat;lon;timestamp;temperature;humidity
3630;DHT22;1831;53.626;10.012;2022-08-01T00:01:52;25.00;77.60
3630;DHT22;1831;53.626;10.012;2022-08-01T00:04:19;25.00;77.50
3630;DHT22;1831;53.626;10.012;2022-08-01T00:06:46;25.00;77.40
3630;DHT22;1831;53.626;10.012;2022-08-01T00:09:13;25.00;77.40
3630;DHT22;1831;53.626;10.012;2022-08-01T00:11:40;25.10;77.10
3630;DHT22;1831;53.626;10.012;2022-08-01T00:14:07;25.10;76.90
3630;DHT22;1831;53.626;10.012;2022-08-01T00:16:36;25.10;76.90
3630;DHT22;1831;53.626;10.012;2022-08-01T00:19:04;25.00;77.10
3630;DHT22;1831;53.626;10.012;2022-08-01T00:21:31;25.00;77.30
3630;DHT22;1831;53.626;10.012;2022-08-01T00:23:58;24.90;77.70
3630;DHT22;1831;53.626;10.012;2022-08-01T00:26:24;24.90;77.70
3630;DHT22;1831;53.626;10.012;2022-08-01T00:28:51;25.00;77.70
3630;DHT22;1831;53.626;10.012;2022-08-01T00:31:18;25.00;77.80
3630;DHT22;1831;53.626;10.012;2022-08-01T00:33:45;24.90;77.80
3630;DHT22;1831;53.626;10.012;2022-08-01T00:36:13;25.00;77.60
3630;DHT22;1831;53.626;10.012;2022-08-01T00:38:40;24.90;78.10
3630;DHT22;1831;53.626;10.012;2022-08-01T00:41:07;25.00;77.70
3630;DHT22;1831;53.626;10.012;2022-08-01T00:43:34;25.00;77.60
3630;DHT22;1831;53.626;10.012;2022-08-01T00:46:01;25.00;78.40
3630;DHT22;1831;53.626;10.012;2022-08-01T00:48:28;25.00;77.80
3630;DHT22;1831;53.626;10.012;2022-08-01T00:50:54;25.00;77.60
3630;DHT22;1831;53.626;10.012;2022-08-01T00:53:23;25.00;77.70
3630;DHT22;1831;53.626;10.012;2022-08-01T00:55:50;25.00;77.80
3630;DHT22;1831;53.626;10.012;2022-08-01T00:58:17;25.00;78.50
3630;DHT22;1831;53.626;10.012;2022-08-01T01:00:44;24.80;78.10
3630;DHT22;1831;53.626;10.012;2022-08-01T01:03:11;24.90;77.90
3630;DHT22;1831;53.626;10.012;2022-08-01T01:05:45;24.90;77.70
3630;DHT22;1831;53.626;10.012;2022-08-01T01:08:20;24.90;78.00
3630;DHT22;1831;53.626;10.012;2022-08-01T01:10:54;24.90;77.70
3630;DHT22;1831;53.626;10.012;2022-08-01T01:13:25;25.00;77.80
3630;DHT22;1831;53.626;10.012;2022-08-01T01:15:59;25.00;77.70
3630;DHT22;1831;53.626;10.012;2022-08-01T01:18:30;25.10;77.30
3630;DHT22;1831;53.626;10.012;2022-08-01T01:21:07;25.10;77.20
3630;DHT22;1831;53.626;10.012;2022-08-01T01:23:45;25.00;77.50
3630;DHT22;1831;53.626;10.012;2022-08-01T01:26:23;25.00;77.50
3630;DHT22;1831;53.626;10.012;2022-08-01T01:29:05;24.90;77.70
3630;DHT22;1831;53.626;10.012;2022-08-01T01:31:37;24.80;78.50
3630;DHT22;1831;53.626;10.012;2022-08-01T01:34:07;24.70;78.00
3630;DHT22;1831;53.626;10.012;2022-08-01T01:36:37;24.80;78.00
3630;DHT22;1831;53.626;10.012;2022-08-01T01:39:04;24.60;78.50
3630;DHT22;1831;53.626;10.012;2022-08-01T01:41:33;24.50;79.10
3630;DHT22;1831;53.626;10.012;2022-08-01T01:44:04;24.50;78.90
3630;DHT22;1831;53.626;10.012;2022-08-01T01:46:32;24.50;79.50
3630;DHT22;1831;53.626;10.012;2022-08-01T01:49:00;24.50;79.30
3630;DHT22;1831;53.626;10.012;2022-08-01T01:51:28;24.60;79.10
3630;DHT22;1831;53.626;10.012;2022-08-01T01:53:57;24.70;79.00
3630;DHT22;1831;53.626;10.012;2022-08-01T01:56:25;24.80;78.80
3630;DHT22;1831;53.626;10.012;2022-08-01T01:58:56;24.70;78.80
3630;DHT22;1831;53.626;10.012;2022-08-01T02:01:28;24.50;79.10
3630;DHT22;1831;53.626;10.012;2022-08-01T02:03:56;24.50;80.40
3630;DHT22;1831;53.626;10.012;2022-08-01T02:06:24;24.50;79.90
3630;DHT22;1831;53.626;10.012;2022-08-01T02:08:54;24.50;79.80
3630;DHT22;1831;53.626;10.012;2022-08-01T02:11:21;24.40;80.10
3630;DHT22;1831;53.626;10.012;2022-08-01T02:13:53;24.30;80.00
3630;DHT22;1831;53.626;10.012;2022-08-01T02:16:23;24.40;80.10
3630;DHT22;1831;53.626;10.012;2022-08-01T02:18:51;24.30;80.10
3630;DHT22;1831;53.626;10.012;2022-08-01T02:21:23;24.10;80.50
3630;DHT22;1831;53.626;10.012;2022-08-01T02:23:52;24.10;81.30
3630;DHT22;1831;53.626;10.012;2022-08-01T02:26:22;24.00;81.10
3630;DHT22;1831;53.626;10.012;2022-08-01T02:28:54;24.10;81.50
3630;DHT22;1831;53.626;10.012;2022-08-01T02:31:23;23.90;81.80
3630;DHT22;1831;53.626;10.012;2022-08-01T02:33:56;23.90;81.60
3630;DHT22;1831;53.626;10.012;2022-08-01T02:36:25;24.00;81.50
3630;DHT22;1831;53.626;10.012;2022-08-01T02:38:55;24.00;81.30
3630;DHT22;1831;53.626;10.012;2022-08-01T02:41:24;24.10;81.00
3630;DHT22;1831;53.626;10.012;2022-08-01T02:43:53;23.90;81.20
3630;DHT22;1831;53.626;10.012;2022-08-01T02:46:29;23.90;81.40
3630;DHT22;1831;53.626;10.012;2022-08-01T02:49:01;24.10;81.10
3630;DHT22;1831;53.626;10.012;2022-08-01T02:51:30;23.90;81.20
3630;DHT22;1831;53.626;10.012;2022-08-01T02:53:59;24.00;81.60
3630;DHT22;1831;53.626;10.012;2022-08-01T02:56:29;23.90;81.20
3630;DHT22;1831;53.626;10.012;2022-08-01T02:59:03;24.00;81.20
3630;DHT22;1831;53.626;10.012;2022-08-01T03:01:32;24.10;80.90
3630;DHT22;1831;53.626;10.012;2022-08-01T03:04:02;24.10;80.40
3630;DHT22;1831;53.626;10.012;2022-08-01T03:06:29;24.10;80.60
3630;DHT22;1831;53.626;10.012;2022-08-01T03:08:57;24.10;80.60
3630;DHT22;1831;53.626;10.012;2022-08-01T03:11:26;24.20;80.50
3630;DHT22;1831;53.626;10.012;2022-08-01T03:13:54;24.20;80.40
3630;DHT22;1831;53.626;10.012;2022-08-01T03:16:27;24.20;80.50
3630;DHT22;1831;53.626;10.012;2022-08-01T03:18:56;24.30;80.40
3630;DHT22;1831;53.626;10.012;2022-08-01T03:21:27;24.40;80.00
3630;DHT22;1831;53.626;10.012;2022-08-01T03:23:56;24.30;80.20
3630;DHT22;1831;53.626;10.012;2022-08-01T03:26:26;24.20;80.00
3630;DHT22;1831;53.626;10.012;2022-08-01T03:28:56;24.20;80.10
3630;DHT22;1831;53.626;10.012;2022-08-01T03:31:24;24.30;79.90
3630;DHT22;1831;53.626;10.012;2022-08-01T03:33:52;24.30;79.50
3630;DHT22;1831;53.626;10.012;2022-08-01T03:36:21;24.20;79.80
3630;DHT22;1831;53.626;10.012;2022-08-01T03:38:55;24.30;79.70
3630;DHT22;1831;53.626;10.012;2022-08-01T03:41:25;24.30;79.50
3630;DHT22;1831;53.626;10.012;2022-08-01T03:43:56;24.40;79.40
3630;DHT22;1831;53.626;10.012;2022-08-01T03:46:28;24.50;79.10
3630;DHT22;1831;53.626;10.012;2022-08-01T03:48:58;24.50;78.60
3630;DHT22;1831;53.626;10.012;2022-08-01T03:51:27;24.40;78.60
3630;DHT22;1831;53.626;10.012;2022-08-01T03:54:00;24.40;78.90
3630;DHT22;1831;53.626;10.012;2022-08-01T03:56:27;24.50;78.50
3630;DHT22;1831;53.626;10.012;2022-08-01T03:58:58;24.40;78.40
3630;DHT22;1831;53.626;10.012;2022-08-01T04:01:25;24.30;79.20
3630;DHT22;1831;53.626;10.012;2022-08-01T04:03:53;24.40;78.40
3630;DHT22;1831;53.626;10.012;2022-08-01T04:06:20;24.40;78.50
3630;DHT22;1831;53.626;10.012;2022-08-01T04:08:47;24.20;78.40
3630;DHT22;1831;53.626;10.012;2022-08-01T04:11:23;24.30;79.40
3630;DHT22;1831;53.626;10.012;2022-08-01T04:13:52;24.30;78.70
3630;DHT22;1831;53.626;10.012;2022-08-01T04:16:19;24.20;78.60
3630;DHT22;1831;53.626;10.012;2022-08-01T04:18:46;24.30;78.60
3630;DHT22;1831;53.626;10.012;2022-08-01T04:21:14;24.30;78.70
3630;DHT22;1831;53.626;10.012;2022-08-01T04:23:46;24.30;78.80
3630;DHT22;1831;53.626;10.012;2022-08-01T04:26:15;24.30;78.70
3630;DHT22;1831;53.626;10.012;2022-08-01T04:28:44;24.40;78.60
3630;DHT22;1831;53.626;10.012;2022-08-01T04:31:12;24.40;78.30
3630;DHT22;1831;53.626;10.012;2022-08-01T04:33:43;24.40;78.30
3630;DHT22;1831;53.626;10.012;2022-08-01T04:36:14;24.40;78.20
3630;DHT22;1831;53.626;10.012;2022-08-01T04:38:44;24.40;78.10
3630;DHT22;1831;53.626;10.012;2022-08-01T04:41:13;24.40;78.20
3630;DHT22;1831;53.626;10.012;2022-08-01T04:43:40;24.40;78.20
3630;DHT22;1831;53.626;10.012;2022-08-01T04:46:10;24.30;78.50
3630;DHT22;1831;53.626;10.012;2022-08-01T04:48:38;24.40;78.70
3630;DHT22;1831;53.626;10.012;2022-08-01T04:51:12;24.20;78.70
3630;DHT22;1831;53.626;10.012;2022-08-01T04:53:40;24.10;79.10
3630;DHT22;1831;53.626;10.012;2022-08-01T04:56:08;24.00;79.00
3630;DHT22;1831;53.626;10.012;2022-08-01T04:58:35;24.10;79.00
3630;DHT22;1831;53.626;10.012;2022-08-01T05:01:02;24.00;79.50
3630;DHT22;1831;53.626;10.012;2022-08-01T05:03:30;23.80;80.00
3630;DHT22;1831;53.626;10.012;2022-08-01T05:05:57;23.80;81.30
3630;DHT22;1831;53.626;10.012;2022-08-01T05:08:24;23.70;81.50
3630;DHT22;1831;53.626;10.012;2022-08-01T05:10:51;23.60;81.30
3630;DHT22;1831;53.626;10.012;2022-08-01T05:13:18;23.60;81.10
3630;DHT22;1831;53.626;10.012;2022-08-01T05:15:45;23.40;81.00
3630;DHT22;1831;53.626;10.012;2022-08-01T05:18:12;23.60;80.90
3630;DHT22;1831;53.626;10.012;2022-08-01T05:20:40;23.50;80.80
3630;DHT22;1831;53.626;10.012;2022-08-01T05:23:08;23.50;81.10
3630;DHT22;1831;53.626;10.012;2022-08-01T05:25:34;23.50;81.00
3630;DHT22;1831;53.626;10.012;2022-08-01T05:28:01;23.70;81.10
3630;DHT22;1831;53.626;10.012;2022-08-01T05:30:28;23.80;80.60
3630;DHT22;1831;53.626;10.012;2022-08-01T05:32:55;24.00;80.00
3630;DHT22;1831;53.626;10.012;2022-08-01T05:35:22;24.00;79.70
3630;DHT22;1831;53.626;10.012;2022-08-01T05:37:51;23.90;79.50
3630;DHT22;1831;53.626;10.012;2022-08-01T05:40:18;23.90;79.80
3630;DHT22;1831;53.626;10.012;2022-08-01T05:42:45;23.90;80.00
3630;DHT22;1831;53.626;10.012;2022-08-01T05:45:12;23.90;79.80
3630;DHT22;1831;53.626;10.012;2022-08-01T05:47:38;23.90;79.90
3630;DHT22;1831;53.626;10.012;2022-08-01T05:50:06;24.00;79.60
3630;DHT22;1831;53.626;10.012;2022-08-01T05:52:33;24.10;79.00
3630;DHT22;1831;53.626;10.012;2022-08-01T05:55:01;24.20;78.60
3630;DHT22;1831;53.626;10.012;2022-08-01T05:57:28;24.00;78.90
3630;DHT22;1831;53.626;10.012;2022-08-01T05:59:55;24.00;79.30
3630;DHT22;1831;53.626;10.012;2022-08-01T06:02:22;23.80;79.50
3630;DHT22;1831;53.626;10.012;2022-08-01T06:04:49;24.10;79.00
3630;DHT22;1831;53.626;10.012;2022-08-01T06:07:16;24.20;78.40
3630;DHT22;1831;53.626;10.012;2022-08-01T06:09:42;24.20;78.00
3630;DHT22;1831;53.626;10.012;2022-08-01T06:12:11;24.20;78.10
3630;DHT22;1831;53.626;10.012;2022-08-01T06:14:37;24.30;78.20
3630;DHT22;1831;53.626;10.012;2022-08-01T06:17:05;24.20;77.80
3630;DHT22;1831;53.626;10.012;2022-08-01T06:19:32;24.40;77.60
3630;DHT22;1831;53.626;10.012;2022-08-01T06:21:58;24.40;77.30
3630;DHT22;1831;53.626;10.012;2022-08-01T06:24:25;24.40;77.30
3630;DHT22;1831;53.626;10.012;2022-08-01T06:26:52;24.30;78.10
3630;DHT22;1831;53.626;10.012;2022-08-01T06:29:20;24.40;77.50
3630;DHT22;1831;53.626;10.012;2022-08-01T06:31:47;24.10;77.50
3630;DHT22;1831;53.626;10.012;2022-08-01T06:34:14;24.20;77.50
3630;DHT22;1831;53.626;10.012;2022-08-01T06:36:41;23.90;77.30
3630;DHT22;1831;53.626;10.012;2022-08-01T06:39:08;23.90;77.50
3630;DHT22;1831;53.626;10.012;2022-08-01T06:41:35;24.00;77.80
3630;DHT22;1831;53.626;10.012;2022-08-01T06:44:02;24.10;77.10
3630;DHT22;1831;53.626;10.012;2022-08-01T06:46:31;24.20;76.60
3630;DHT22;1831;53.626;10.012;2022-08-01T06:48:58;24.20;76.00
3630;DHT22;1831;53.626;10.012;2022-08-01T06:51:25;24.30;76.00
3630;DHT22;1831;53.626;10.012;2022-08-01T06:53:52;24.30;75.60
3630;DHT22;1831;53.626;10.012;2022-08-01T06:56:19;24.20;76.30
3630;DHT22;1831;53.626;10.012;2022-08-01T06:58:46;24.20;76.00
3630;DHT22;1831;53.626;10.012;2022-08-01T07:01:13;24.30;76.20
3630;DHT22;1831;53.626;10.012;2022-08-01T07:03:41;24.00;76.30
3630;DHT22;1831;53.626;10.012;2022-08-01T07:06:08;23.90;76.50
3630;DHT22;1831;53.626;10.012;2022-08-01T07:08:36;24.10;76.30
3630;DHT22;1831;53.626;10.012;2022-08-01T07:11:03;24.10;76.10
3630;DHT22;1831;53.626;10.012;2022-08-01T07:13:30;24.10;75.70
3630;DHT22;1831;53.626;10.012;2022-08-01T07:15:57;24.20;75.50
3630;DHT22;1831;53.626;10.012;2022-08-01T07:18:24;24.10;75.10
3630;DHT22;1831;53.626;10.012;2022-08-01T07:20:53;23.90;75.50
3630;DHT22;1831;53.626;10.012;2022-08-01T07:23:20;23.70;75.70
3630;DHT22;1831;53.626;10.012;2022-08-01T07:25:47;23.70;75.90
3630;DHT22;1831;53.626;10.012;2022-08-01T07:28:14;23.80;76.10
3630;DHT22;1831;53.626;10.012;2022-08-01T07:30:41;23.90;75.10
3630;DHT22;1831;53.626;10.012;2022-08-01T07:33:09;23.70;75.20
3630;DHT22;1831;53.626;10.012;2022-08-01T07:35:37;23.90;75.00
3630;DHT22;1831;53.626;10.012;2022-08-01T07:38:06;24.20;74.80
3630;DHT22;1831;53.626;10.012;2022-08-01T07:40:33;24.30;74.20
3630;DHT22;1831;53.626;10.012;2022-08-01T07:43:00;24.40;73.60
3630;DHT22;1831;53.626;10.012;2022-08-01T07:45:27;24.40;73.60
3630;DHT22;1831;53.626;10.012;2022-08-01T07:47:54;24.40;73.40
3630;DHT22;1831;53.626;10.012;2022-08-01T07:50:21;24.40;73.40
3630;DHT22;1831;53.626;10.012;2022-08-01T07:52:48;24.50;73.40
3630;DHT22;1831;53.626;10.012;2022-08-01T07:55:16;24.50;72.90
3630;DHT22;1831;53.626;10.012;2022-08-01T07:57:43;24.50;72.60
3630;DHT22;1831;53.626;10.012;2022-08-01T08:00:11;24.60;72.10
3630;DHT22;1831;53.626;10.012;2022-08-01T08:02:38;24.50;70.80
3630;DHT22;1831;53.626;10.012;2022-08-01T08:05:06;24.40;70.20
3630;DHT22;1831;53.626;10.012;2022-08-01T08:07:33;24.40;70.00
3630;DHT22;1831;53.626;10.012;2022-08-01T08:10:00;24.30;70.30
3630;DHT22;1831;53.626;10.012;2022-08-01T08:12:28;24.20;70.50
3630;DHT22;1831;53.626;10.012;2022-08-01T08:14:55;24.20;70.50
3630;DHT22;1831;53.626;10.012;2022-08-01T08:17:24;24.40;70.30
3630;DHT22;1831;53.626;10.012;2022-08-01T08:19:51;24.30;69.60
3630;DHT22;1831;53.626;10.012;2022-08-01T08:22:18;24.00;69.50
3630;DHT22;1831;53.626;10.012;2022-08-01T08:24:45;24.10;70.30
3630;DHT22;1831;53.626;10.012;2022-08-01T08:27:12;24.10;70.60
3630;DHT22;1831;53.626;10.012;2022-08-01T08:29:40;24.20;70.10
3630;DHT22;1831;53.626;10.012;2022-08-01T08:32:07;24.20;69.90
3630;DHT22;1831;53.626;10.012;2022-08-01T08:34:35;24.20;69.90
3630;DHT22;1831;53.626;10.012;2022-08-01T08:37:02;23.90;70.80
3630;DHT22;1831;53.626;10.012;2022-08-01T08:39:29;24.00;70.70
3630;DHT22;1831;53.626;10.012;2022-08-01T08:41:58;24.10;70.00
3630;DHT22;1831;53.626;10.012;2022-08-01T08:44:25;23.90;70.00
3630;DHT22;1831;53.626;10.012;2022-08-01T08:46:55;24.00;70.10
3630;DHT22;1831;53.626;10.012;2022-08-01T08:49:28;24.10;69.70
3630;DHT22;1831;53.626;10.012;2022-08-01T08:51:59;24.10;68.70
3630;DHT22;1831;53.626;10.012;2022-08-01T08:54:27;24.20;67.40
3630;DHT22;1831;53.626;10.012;2022-08-01T08:56:56;24.20;68.00
3630;DHT22;1831;53.626;10.012;2022-08-01T08:59:23;24.10;67.50
3630;DHT22;1831;53.626;10.012;2022-08-01T09:01:51;24.20;67.80
3630;DHT22;1831;53.626;10.012;2022-08-01T09:04:20;24.20;68.10
3630;DHT22;1831;53.626;10.012;2022-08-01T09:06:48;24.30;68.20
3630;DHT22;1831;53.626;10.012;2022-08-01T09:09:15;24.40;67.70
3630;DHT22;1831;53.626;10.012;2022-08-01T09:11:42;24.50;67.40
3630;DHT22;1831;53.626;10.012;2022-08-01T09:14:11;24.50;65.30
3630;DHT22;1831;53.626;10.012;2022-08-01T09:16:41;24.30;65.30
3630;DHT22;1831;53.626;10.012;2022-08-01T09:19:11;24.30;64.20
3630;DHT22;1831;53.626;10.012;2022-08-01T09:21:55;24.30;63.30
3630;DHT22;1831;53.626;10.012;2022-08-01T09:24:22;24.30;63.50
3630;DHT22;1831;53.626;10.012;2022-08-01T09:26:49;24.40;63.80
3630;DHT22;1831;53.626;10.012;2022-08-01T09:29:21;24.60;63.60
3630;DHT22;1831;53.626;10.012;2022-08-01T09:31:48;24.70;63.70
3630;DHT22;1831;53.626;10.012;2022-08-01T09:34:16;24.80;63.70
3630;DHT22;1831;53.626;10.012;2022-08-01T09:36:53;24.80;62.50
3630;DHT22;1831;53.626;10.012;2022-08-01T09:39:23;24.60;61.30
3630;DHT22;1831;53.626;10.012;2022-08-01T09:41:50;24.40;61.40
3630;DHT22;1831;53.626;10.012;2022-08-01T09:44:18;24.10;61.50
3630;DHT22;1831;53.626;10.012;2022-08-01T09:46:54;24.10;62.10
3630;DHT22;1831;53.626;10.012;2022-08-01T09:49:29;24.20;61.90
3630;DHT22;1831;53.626;10.012;2022-08-01T09:51:58;24.40;62.20
3630;DHT22;1831;53.626;10.012;2022-08-01T09:54:35;24.40;61.80
3630;DHT22;1831;53.626;10.012;2022-08-01T09:57:13;24.50;61.30
3630;DHT22;1831;53.626;10.012;2022-08-01T09:59:42;24.60;61.20
3630;DHT22;1831;53.626;10.012;2022-08-01T10:02:10;24.80;61.20
3630;DHT22;1831;53.626;10.012;2022-08-01T10:04:47;24.70;61.10
3630;DHT22;1831;53.626;10.012;2022-08-01T10:07:15;24.80;61.80
3630;DHT22;1831;53.626;10.012;2022-08-01T10:09:46;24.40;61.30
3630;DHT22;1831;53.626;10.012;2022-08-01T10:12:15;24.50;62.00
3630;DHT22;1831;53.626;10.012;2022-08-01T10:14:43;24.70;61.10
3630;DHT22;1831;53.626;10.012;2022-08-01T10:17:13;24.80;60.60
3630;DHT22;1831;53.626;10.012;2022-08-01T10:19:41;24.80;60.40
3630;DHT22;1831;53.626;10.012;2022-08-01T10:22:10;24.90;60.50
3630;DHT22;1831;53.626;10.012;2022-08-01T10:24:44;25.10;60.50
3630;DHT22;1831;53.626;10.012;2022-08-01T10:27:14;25.10;59.10
3630;DHT22;1831;53.626;10.012;2022-08-01T10:29:43;25.30;59.20
3630;DHT22;1831;53.626;10.012;2022-08-01T10:32:12;25.20;59.20
3630;DHT22;1831;53.626;10.012;2022-08-01T10:34:40;25.00;60.00
3630;DHT22;1831;53.626;10.012;2022-08-01T10:37:07;25.20;60.30
3630;DHT22;1831;53.626;10.012;2022-08-01T10:39:34;25.00;59.20
3630;DHT22;1831;53.626;10.012;2022-08-01T10:42:03;25.10;59.10
3630;DHT22;1831;53.626;10.012;2022-08-01T10:44:31;25.10;58.90
3630;DHT22;1831;53.626;10.012;2022-08-01T10:47:03;25.00;58.60
3630;DHT22;1831;53.626;10.012;2022-08-01T10:49:34;25.00;58.70
3630;DHT22;1831;53.626;10.012;2022-08-01T10:52:03;25.10;59.10
3630;DHT22;1831;53.626;10.012;2022-08-01T10:54:38;25.30;58.50
3630;DHT22;1831;53.626;10.012;2022-08-01T10:57:08;25.30;58.00
3630;DHT22;1831;53.626;10.012;2022-08-01T10:59:36;25.10;57.10
3630;DHT22;1831;53.626;10.012;2022-08-01T11:02:26;25.30;57.50
3630;DHT22;1831;53.626;10.012;2022-08-01T11:04:55;25.10;54.50
3630;DHT22;1831;53.626;10.012;2022-08-01T11:07:34;24.90;54.20
3630;DHT22;1831;53.626;10.012;2022-08-01T11:10:04;24.80;55.40
3630;DHT22;1831;53.626;10.012;2022-08-01T11:12:40;24.80;56.60
3630;DHT22;1831;53.626;10.012;2022-08-01T11:15:19;25.00;57.40
3630;DHT22;1831;53.626;10.012;2022-08-01T11:17:54;25.10;56.10
3630;DHT22;1831;53.626;10.012;2022-08-01T11:20:22;25.00;54.30
3630;DHT22;1831;53.626;10.012;2022-08-01T11:23:23;25.10;55.30
3630;DHT22;1831;53.626;10.012;2022-08-01T11:26:12;25.10;56.10
3630;DHT22;1831;53.626;10.012;2022-08-01T11:28:42;25.20;55.60
3630;DHT22;1831;53.626;10.012;2022-08-01T11:31:31;25.30;54.00
3630;DHT22;1831;53.626;10.012;2022-08-01T11:33:58;25.50;55.20
3630;DHT22;1831;53.626;10.012;2022-08-01T11:36:26;25.70;55.00
3630;DHT22;1831;53.626;10.012;2022-08-01T11:39:14;25.10;53.40
3630;DHT22;1831;53.626;10.012;2022-08-01T11:41:43;24.70;54.50
3630;DHT22;1831;53.626;10.012;2022-08-01T11:44:16;24.90;54.50
3630;DHT22;1831;53.626;10.012;2022-08-01T11:47:03;25.10;54.80
3630;DHT22;1831;53.626;10.012;2022-08-01T11:49:46;25.40;54.20
3630;DHT22;1831;53.626;10.012;2022-08-01T11:52:17;25.40;53.60
3630;DHT22;1831;53.626;10.012;2022-08-01T11:54:46;25.50;53.90
3630;DHT22;1831;53.626;10.012;2022-08-01T11:57:17;25.50;52.70
3630;DHT22;1831;53.626;10.012;2022-08-01T11:59:48;25.40;52.90
3630;DHT22;1831;53.626;10.012;2022-08-01T12:02:17;25.60;53.40
3630;DHT22;1831;53.626;10.012;2022-08-01T12:04:48;25.70;52.40
3630;DHT22;1831;53.626;10.012;2022-08-01T12:07:16;25.60;52.80
3630;DHT22;1831;53.626;10.012;2022-08-01T12:09:44;25.40;53.50
3630;DHT22;1831;53.626;10.012;2022-08-01T12:12:15;25.50;53.80
3630;DHT22;1831;53.626;10.012;2022-08-01T12:14:45;25.60;52.00
3630;DHT22;1831;53.626;10.012;2022-08-01T12:17:20;25.70;50.70
3630;DHT22;1831;53.626;10.012;2022-08-01T12:19:54;25.80;50.90
3630;DHT22;1831;53.626;10.012;2022-08-01T12:22:22;25.90;51.00
3630;DHT22;1831;53.626;10.012;2022-08-01T12:24:49;26.00;50.40
3630;DHT22;1831;53.626;10.012;2022-08-01T12:27:24;25.90;50.40
3630;DHT22;1831;53.626;10.012;2022-08-01T12:29:53;25.80;50.00
3630;DHT22;1831;53.626;10.012;2022-08-01T12:32:21;25.70;50.20
3630;DHT22;1831;53.626;10.012;2022-08-01T12:34:50;25.60;51.30
3630;DHT22;1831;53.626;10.012;2022-08-01T12:37:19;25.80;51.20
3630;DHT22;1831;53.626;10.012;2022-08-01T12:39:46;25.80;48.80
3630;DHT22;1831;53.626;10.012;2022-08-01T12:42:14;26.00;49.20
3630;DHT22;1831;53.626;10.012;2022-08-01T12:44:43;26.00;48.10
3630;DHT22;1831;53.626;10.012;2022-08-01T12:47:13;25.70;47.70
3630;DHT22;1831;53.626;10.012;2022-08-01T12:49:42;25.70;48.50
3630;DHT22;1831;53.626;10.012;2022-08-01T12:52:10;25.70;48.20
3630;DHT22;1831;53.626;10.012;2022-08-01T12:54:59;26.00;48.90
3630;DHT22;1831;53.626;10.012;2022-08-01T12:57:27;26.10;47.30
3630;DHT22;1831;53.626;10.012;2022-08-01T13:00:08;26.20;47.10
3630;DHT22;1831;53.626;10.012;2022-08-01T13:02:37;26.00;46.50
3630;DHT22;1831;53.626;10.012;2022-08-01T13:05:06;26.10;46.60
3630;DHT22;1831;53.626;10.012;2022-08-01T13:07:43;25.80;47.00
3630;DHT22;1831;53.626;10.012;2022-08-01T13:10:12;26.00;48.60
3630;DHT22;1831;53.626;10.012;2022-08-01T13:12:39;26.20;48.40
3630;DHT22;1831;53.626;10.012;2022-08-01T13:15:24;26.40;47.80
3630;DHT22;1831;53.626;10.012;2022-08-01T13:17:54;26.50;47.80
3630;DHT22;1831;53.626;10.012;2022-08-01T13:20:28;26.30;45.90
3630;DHT22;1831;53.626;10.012;2022-08-01T13:23:13;26.20;46.70
3630;DHT22;1831;53.626;10.012;2022-08-01T13:25:48;26.30;46.80
3630;DHT22;1831;53.626;10.012;2022-08-01T13:28:19;26.30;46.90
3630;DHT22;1831;53.626;10.012;2022-08-01T13:30:58;26.70;46.90
3630;DHT22;1831;53.626;10.012;2022-08-01T13:33:28;26.90;46.60
3630;DHT22;1831;53.626;10.012;2022-08-01T13:35:56;26.60;45.90
3630;DHT22;1831;53.626;10.012;2022-08-01T13:38:23;26.20;45.40
3630;DHT22;1831;53.626;10.012;2022-08-01T13:41:04;26.00;46.10
3630;DHT22;1831;53.626;10.012;2022-08-01T13:43:31;25.80;46.80
3630;DHT22;1831;53.626;10.012;2022-08-01T13:45:58;25.90;45.70
3630;DHT22;1831;53.626;10.012;2022-08-01T13:48:26;25.90;46.00
3630;DHT22;1831;53.626;10.012;2022-08-01T13:50:53;26.50;46.30
3630;DHT22;1831;53.626;10.012;2022-08-01T13:53:20;26.70;45.30
3630;DHT22;1831;53.626;10.012;2022-08-01T13:55:47;26.50;44.00
3630;DHT22;1831;53.626;10.012;2022-08-01T13:58:14;26.90;44.90
3630;DHT22;1831;53.626;10.012;2022-08-01T14:00:41;27.10;44.20
3630;DHT22;1831;53.626;10.012;2022-08-01T14:03:08;27.50;43.30
3630;DHT22;1831;53.626;10.012;2022-08-01T14:05:37;27.30;43.10
3630;DHT22;1831;53.626;10.012;2022-08-01T14:08:05;27.50;44.20
3630;DHT22;1831;53.626;10.012;2022-08-01T14:10:32;27.80;42.00
3630;DHT22;1831;53.626;10.012;2022-08-01T14:12:59;28.00;41.20
3630;DHT22;1831;53.626;10.012;2022-08-01T14:15:26;28.40;40.90
3630;DHT22;1831;53.626;10.012;2022-08-01T14:17:53;28.90;39.80
3630;DHT22;1831;53.626;10.012;2022-08-01T14:20:19;29.80;40.60
3630;DHT22;1831;53.626;10.012;2022-08-01T14:22:48;30.50;37.70
3630;DHT22;1831;53.626;10.012;2022-08-01T14:25:15;30.80;36.70
3630;DHT22;1831;53.626;10.012;2022-08-01T14:27:43;31.30;37.30
3630;DHT22;1831;53.626;10.012;2022-08-01T14:30:11;32.20;36.80
3630;DHT22;1831;53.626;10.012;2022-08-01T14:32:38;32.70;34.40
3630;DHT22;1831;53.626;10.012;2022-08-01T14:35:06;33.40;35.00
3630;DHT22;1831;53.626;10.012;2022-08-01T14:37:33;33.90;32.80
3630;DHT22;1831;53.626;10.012;2022-08-01T14:40:02;34.40;34.20
3630;DHT22;1831;53.626;10.012;2022-08-01T14:42:34;34.50;32.40
3630;DHT22;1831;53.626;10.012;2022-08-01T14:45:01;34.70;32.50
3630;DHT22;1831;53.626;10.012;2022-08-01T14:47:28;34.80;32.20
3630;DHT22;1831;53.626;10.012;2022-08-01T14:49:55;34.70;32.10
3630;DHT22;1831;53.626;10.012;2022-08-01T14:52:22;34.50;32.00
3630;DHT22;1831;53.626;10.012;2022-08-01T14:54:48;34.40;33.20
3630;DHT22;1831;53.626;10.012;2022-08-01T14:57:17;34.50;32.80
3630;DHT22;1831;53.626;10.012;2022-08-01T14:59:44;34.30;33.00
3630;DHT22;1831;53.626;10.012;2022-08-01T15:02:11;34.20;32.10
3630;DHT22;1831;53.626;10.012;2022-08-01T15:04:42;34.30;32.70
3630;DHT22;1831;53.626;10.012;2022-08-01T15:07:09;34.40;32.50
3630;DHT22;1831;53.626;10.012;2022-08-01T15:09:36;34.60;32.80
3630;DHT22;1831;53.626;10.012;2022-08-01T15:12:04;34.70;32.20
3630;DHT22;1831;53.626;10.012;2022-08-01T15:14:32;34.90;31.70
3630;DHT22;1831;53.626;10.012;2022-08-01T15:17:16;34.90;32.60
3630;DHT22;1831;53.626;10.012;2022-08-01T15:19:44;35.10;31.10
3630;DHT22;1831;53.626;10.012;2022-08-01T15:22:11;35.10;31.10
3630;DHT22;1831;53.626;10.012;2022-08-01T15:24:38;34.60;31.00
3630;DHT22;1831;53.626;10.012;2022-08-01T15:27:06;34.10;32.80
3630;DHT22;1831;53.626;10.012;2022-08-01T15:29:34;33.50;32.80
3630;DHT22;1831;53.626;10.012;2022-08-01T15:32:01;32.60;33.60
3630;DHT22;1831;53.626;10.012;2022-08-01T15:34:29;32.00;34.70
3630;DHT22;1831;53.626;10.012;2022-08-01T15:36:56;31.10;36.20
3630;DHT22;1831;53.626;10.012;2022-08-01T15:39:23;30.20;37.60
3630;DHT22;1831;53.626;10.012;2022-08-01T15:41:50;29.70;39.30
3630;DHT22;1831;53.626;10.012;2022-08-01T15:44:17;28.90;40.30
3630;DHT22;1831;53.626;10.012;2022-08-01T15:46:47;28.30;41.30
3630;DHT22;1831;53.626;10.012;2022-08-01T15:49:14;28.10;42.00
3630;DHT22;1831;53.626;10.012;2022-08-01T15:51:41;28.10;42.40
3630;DHT22;1831;53.626;10.012;2022-08-01T15:54:08;27.90;42.40
3630;DHT22;1831;53.626;10.012;2022-08-01T15:56:36;28.10;42.80
3630;DHT22;1831;53.626;10.012;2022-08-01T15:59:03;28.10;42.80